Saint Cloud, Minnesota
Current Conditions -  °F | °C
As of 11:53 AM on Wednesday 28 Jan 2015 (Local Time) from KSTC Reporting Station
Haze Haze  
Wind Chill: 17°   Ceiling: 700
Heat Index: 30°   Visibility: 4mi
Dew Point: 27°   Wind: 21mph
Humidity: 88%   Direction: 150°SSE
Pressure: 29.86"   Gusts: NA
Location:  45.55°N, 94.06°W
Report Text: KSTC 281753Z 15018KT 4SM BR OVC007 M01/M03 A2986 RMK AO2 SLP130 T10111028 11011 21017 58020
Loading
Personal Weather Stations






























Interactive Weather Map New forecast layout! Learn more

10-Day Weather Forecast

Advertisements
Track Severe Weather on mobile